| time (UTC) | temp F | wind direction | speed knots | gust knots | rain 1hr in | rain 24hr in | rain mn in | humidity % | barometer mb |
| 20260905224516 | 64 | 0.0 | 0.0 | 0.00 | 0.11 | 0.11 | 93 | 1009.8 | |
| 20260905224016 | 64 | 0.0 | 0.0 | 0.00 | 0.11 | 0.11 | 93 | 1009.6 | |
| 20260905223516 | 64 | 0.0 | 0.0 | 0.00 | 0.11 | 0.11 | 93 | 1009.6 | |
| 20260905223016 | 64 | 0.0 | 0.9 | 0.00 | 0.11 | 0.11 | 93 | 1009.6 | |
| 20260905222556 | 64 | 0.0 | 0.0 | 0.00 | 0.11 | 0.11 | 93 | 1009.5 | |
| 20260905222016 | 64 | 0.0 | 0.0 | 0.00 | 0.11 | 0.11 | 93 | 1009.5 | |
| 20260905221536 | 64 | 0.0 | 0.0 | 0.00 | 0.11 | 0.11 | 93 | 1009.5 | |
| 20260905221036 | 64 | 0.0 | 0.0 | 0.00 | 0.11 | 0.11 | 93 | 1009.3 | |
| 20260905220516 | 64 | 0.0 | 0.0 | 0.00 | 0.11 | 0.11 | 93 | 1009.3 | |
| 20260905220016 | 64 | 0.0 | 0.0 | 0.00 | 0.11 | 0.11 | 93 | 1009.3 | |
| 20260905215516 | 64 | 0.0 | 0.0 | 0.00 | 0.11 | 0.11 | 93 | 1008.9 | |
| 20260905215016 | 64 | 0.0 | 0.0 | 0.00 | 0.11 | 0.11 | 93 | 1008.9 | |
| 20260905214556 | 64 | 0.0 | 0.9 | 0.00 | 0.11 | 0.11 | 93 | 1008.9 | |
| 20260905214036 | 64 | 0.0 | 1.7 | 0.00 | 0.11 | 0.11 | 93 | 1008.6 | |
| 20260905213516 | 64 | 0.0 | 2.6 | 0.00 | 0.11 | 0.11 | 92 | 1008.6 | |
| 20260905213016 | 64 | 0.0 | 0.0 | 0.00 | 0.11 | 0.11 | 93 | 1008.6 | |
| 20260905212516 | 64 | 0.0 | 1.7 | 0.00 | 0.11 | 0.11 | 92 | 1008.5 | |
| 20260905212017 | 64 | 0.0 | 0.0 | 0.00 | 0.11 | 0.11 | 93 | 1008.5 | |
| 20260905211515 | 64 | 0.0 | 0.0 | 0.03 | 0.11 | 0.11 | 93 | 1008.5 | |
| 20260905211016 | 64 | 0.0 | 0.0 | 0.07 | 0.11 | 0.11 | 92 | 1008.4 | |
| 20260905210516 | 64 | 0.0 | 0.0 | 0.08 | 0.11 | 0.11 | 92 | 1008.4 | |
| 20260905210016 | 64 | 0.0 | 0.0 | 0.09 | 0.11 | 0.11 | 92 | 1008.4 | |
| 20260905205515 | 64 | 0.0 | 0.0 | 0.09 | 0.11 | 0.11 | 92 | 1008.1 | |
| 20260905205016 | 64 | 0.0 | 0.0 | 0.09 | 0.11 | 0.11 | 92 | 1008.1 | |
| 20260905204515 | 64 | 0.0 | 0.0 | 0.11 | 0.11 | 0.11 | 92 | 1008.1 | |
| 20260905204016 | 64 | 0.0 | 0.0 | 0.11 | 0.11 | 0.11 | 92 | 1008.1 | |
| 20260905203516 | 64 | 0.0 | 0.9 | 0.11 | 0.11 | 0.11 | 91 | 1008.1 | |
| 20260905203016 | 64 | 0.0 | 0.0 | 0.11 | 0.11 | 0.11 | 91 | 1008.1 | |
| 20260905202515 | 64 | 0.0 | 0.9 | 0.11 | 0.11 | 0.11 | 91 | 1008.1 | |
| 20260905202036 | 64 | 0.0 | 0.9 | 0.11 | 0.11 | 0.11 | 90 | 1008.1 | |
| 20260905201556 | 64 | 0.0 | 0.9 | 0.08 | 0.08 | 0.08 | 90 | 1008.1 | |
| 20260905201016 | 64 | 0.0 | 0.0 | 0.04 | 0.04 | 0.04 | 89 | 1008.2 | |
| 20260905200516 | 65 | 0.0 | 0.9 | 0.03 | 0.03 | 0.03 | 88 | 1008.2 | |
| 20260905200036 | 65 | 0.0 | 0.9 | 0.02 | 0.02 | 0.02 | 86 | 1008.2 | |
| 20260905195516 | 66 | 0.0 | 2.6 | 0.02 | 0.02 | 0.02 | 85 | 1008.1 | |
| 20260905195015 | 67 | 90 | 0.9 | 2.6 | 0.02 | 0.02 | 0.02 | 82 | 1008.1 |
| 20260905194516 | 69 | 45 | 2.6 | 7.8 | 0.00 | 0.00 | 0.00 | 78 | 1008.1 |
| 20260905194015 | 70 | 90 | 0.9 | 2.6 | 0.00 | 0.00 | 0.00 | 76 | 1007.6 |
| 20260905193516 | 70 | 0.0 | 1.7 | 0.00 | 0.00 | 0.00 | 75 | 1007.6 | |
| 20260905193015 | 71 | 90 | 0.9 | 4.3 | 0.00 | 0.00 | 0.00 | 74 | 1007.6 |
| 20260905192535 | 71 | 90 | 0.9 | 4.3 | 0.00 | 0.00 | 0.00 | 73 | 1007.6 |
| 20260905192035 | 71 | 90 | 0.9 | 2.6 | 0.00 | 0.00 | 0.00 | 73 | 1007.6 |
| 20260905191535 | 72 | 0.0 | 1.7 | 0.00 | 0.00 | 0.00 | 73 | 1007.6 | |
| 20260905191015 | 72 | 0.0 | 0.9 | 0.00 | 0.00 | 0.00 | 75 | 1007.6 | |
| 20260905190536 | 72 | 0.0 | 1.7 | 0.00 | 0.00 | 0.00 | 75 | 1007.6 | |
| 20260905190015 | 72 | 45 | 0.9 | 2.6 | 0.00 | 0.00 | 0.00 | 72 | 1007.6 |
| 20260905185536 | 73 | 90 | 0.9 | 2.6 | 0.00 | 0.00 | 0.00 | 72 | 1007.6 |
| 20260905185015 | 73 | 0.0 | 3.5 | 0.00 | 0.00 | 0.00 | 72 | 1007.6 | |
| 20260905184515 | 73 | 0.0 | 1.7 | 0.00 | 0.00 | 0.00 | 72 | 1007.6 | |
| 20260905184015 | 73 | 0.0 | 0.9 | 0.00 | 0.00 | 0.00 | 73 | 1007.5 | |
| 20260905183515 | 72 | 113 | 0.9 | 2.6 | 0.00 | 0.00 | 0.00 | 74 | 1007.5 |
| 20260905183015 | 72 | 113 | 0.9 | 3.5 | 0.00 | 0.00 | 0.00 | 73 | 1007.5 |
| 20260905182515 | 72 | 113 | 1.7 | 4.3 | 0.00 | 0.00 | 0.00 | 73 | 1007.7 |
| 20260905182016 | 73 | 135 | 0.9 | 2.6 | 0.00 | 0.00 | 0.00 | 72 | 1007.7 |
| 20260905181515 | 72 | 0.0 | 1.7 | 0.00 | 0.00 | 0.00 | 73 | 1007.7 | |
| 20260905181015 | 72 | 90 | 0.9 | 2.6 | 0.00 | 0.00 | 0.00 | 73 | 1007.8 |
| 20260905180515 | 72 | 90 | 0.9 | 2.6 | 0.00 | 0.00 | 0.00 | 74 | 1007.8 |
| 20260905180016 | 72 | 0.0 | 1.7 | 0.00 | 0.00 | 0.00 | 74 | 1007.8 | |
| 20260905175535 | 72 | 90 | 0.9 | 2.6 | 0.00 | 0.00 | 0.00 | 74 | 1007.9 |
| 20260905175035 | 72 | 90 | 0.9 | 2.6 | 0.00 | 0.00 | 0.00 | 72 | 1007.9 |
| 20260905174516 | 73 | 45 | 0.9 | 2.6 | 0.00 | 0.00 | 0.00 | 71 | 1007.9 |
| 20260905174015 | 73 | 0 | 0.9 | 3.5 | 0.00 | 0.00 | 0.00 | 69 | 1008.1 |
| 20260905173515 | 72 | 68 | 0.9 | 2.6 | 0.00 | 0.00 | 0.00 | 71 | 1008.1 |
| 20260905173015 | 72 | 23 | 1.7 | 4.3 | 0.00 | 0.00 | 0.00 | 71 | 1008.1 |
| 20260905172515 | 72 | 0 | 0.9 | 2.6 | 0.00 | 0.00 | 0.00 | 71 | 1008.3 |
| 20260905172015 | 72 | 338 | 2.6 | 5.2 | 0.00 | 0.00 | 0.00 | 71 | 1008.3 |
| 20260905171515 | 72 | 90 | 1.7 | 4.3 | 0.00 | 0.00 | 0.00 | 71 | 1008.3 |
| 20260905171035 | 73 | 90 | 0.9 | 4.3 | 0.00 | 0.00 | 0.00 | 71 | 1008.6 |
| 20260905170535 | 73 | 23 | 1.7 | 4.3 | 0.00 | 0.00 | 0.00 | 71 | 1008.6 |
| 20260905170015 | 73 | 338 | 1.7 | 2.6 | 0.00 | 0.00 | 0.00 | 71 | 1008.6 |
| 20260905165515 | 73 | 0 | 0.9 | 2.6 | 0.00 | 0.00 | 0.00 | 70 | 1008.8 |
| 20260905165015 | 73 | 23 | 1.7 | 4.3 | 0.00 | 0.00 | 0.00 | 70 | 1008.8 |
| 20260905164515 | 72 | 68 | 0.9 | 5.2 | 0.00 | 0.00 | 0.00 | 70 | 1008.8 |
| 20260905164035 | 72 | 338 | 0.9 | 2.6 | 0.00 | 0.00 | 0.00 | 71 | 1009.1 |
| 20260905163535 | 72 | 23 | 1.7 | 4.3 | 0.00 | 0.00 | 0.00 | 70 | 1009.1 |
| 20260905163015 | 72 | 338 | 2.6 | 5.2 | 0.00 | 0.00 | 0.00 | 69 | 1009.1 |
| 20260905162515 | 73 | 338 | 0.9 | 2.6 | 0.00 | 0.00 | 0.00 | 70 | 1009.5 |
| 20260905162015 | 72 | 68 | 0.9 | 5.2 | 0.00 | 0.00 | 0.00 | 68 | 1009.5 |
| 20260905161515 | 72 | 68 | 0.9 | 5.2 | 0.00 | 0.00 | 0.00 | 70 | 1009.5 |
| 20260905161015 | 72 | 0.0 | 0.9 | 0.00 | 0.00 | 0.00 | 73 | 1009.7 | |
| 20260905160515 | 71 | 338 | 0.9 | 5.2 | 0.00 | 0.00 | 0.00 | 73 | 1009.7 |
| 20260905160015 | 71 | 68 | 0.9 | 7.0 | 0.00 | 0.00 | 0.00 | 73 | 1009.7 |
| 20260905155515 | 70 | 338 | 0.9 | 1.7 | 0.00 | 0.00 | 0.00 | 74 | 1009.9 |
| 20260905155015 | 70 | 23 | 0.9 | 1.7 | 0.00 | 0.00 | 0.00 | 73 | 1009.9 |
| 20260905154515 | 71 | 0.0 | 2.6 | 0.00 | 0.00 | 0.00 | 74 | 1009.9 | |
| 20260905154015 | 71 | 338 | 0.9 | 2.6 | 0.00 | 0.00 | 0.00 | 76 | 1010.1 |
| 20260905153515 | 71 | 0.0 | 1.7 | 0.00 | 0.00 | 0.00 | 76 | 1010.1 | |
| 20260905153015 | 70 | 0.0 | 1.7 | 0.00 | 0.00 | 0.00 | 77 | 1010.1 | |
| 20260905152535 | 70 | 0.0 | 0.9 | 0.00 | 0.00 | 0.00 | 78 | 1010.1 | |
| 20260905152015 | 70 | 0 | 0.9 | 2.6 | 0.00 | 0.00 | 0.00 | 77 | 1010.1 |
| 20260905151515 | 70 | 0.0 | 0.9 | 0.00 | 0.00 | 0.00 | 77 | 1010.1 | |
| 20260905151015 | 70 | 0.0 | 0.9 | 0.00 | 0.00 | 0.00 | 77 | 1010.4 | |
| 20260905150535 | 70 | 0.0 | 2.6 | 0.00 | 0.00 | 0.00 | 76 | 1010.4 | |
| 20260905150015 | 70 | 0.0 | 0.9 | 0.00 | 0.00 | 0.00 | 76 | 1010.4 | |
| 20260905145535 | 70 | 0.0 | 2.6 | 0.00 | 0.00 | 0.00 | 77 | 1010.5 | |
| 20260905145015 | 70 | 338 | 0.9 | 3.5 | 0.00 | 0.00 | 0.00 | 76 | 1010.5 |
| 20260905144535 | 70 | 315 | 0.9 | 2.6 | 0.00 | 0.00 | 0.00 | 77 | 1010.5 |
| 20260905144015 | 69 | 0.0 | 0.9 | 0.00 | 0.00 | 0.00 | 79 | 1010.5 | |
| 20260905143515 | 69 | 338 | 0.9 | 2.6 | 0.00 | 0.00 | 0.00 | 79 | 1010.5 |
| 20260905143015 | 69 | 338 | 0.9 | 2.6 | 0.00 | 0.00 | 0.00 | 79 | 1010.5 |
| 20260905142515 | 69 | 0 | 0.9 | 1.7 | 0.00 | 0.00 | 0.00 | 79 | 1010.7 |
| 20260905142015 | 69 | 338 | 1.7 | 2.6 | 0.00 | 0.00 | 0.00 | 79 | 1010.7 |
| 20260905141515 | 69 | 338 | 1.7 | 3.5 | 0.00 | 0.00 | 0.00 | 79 | 1010.7 |
| 20260905141015 | 69 | 0.0 | 1.7 | 0.00 | 0.00 | 0.00 | 79 | 1010.6 | |
| 20260905140515 | 69 | 338 | 0.9 | 1.7 | 0.00 | 0.00 | 0.00 | 79 | 1010.6 |
| 20260905140015 | 69 | 338 | 1.7 | 2.6 | 0.00 | 0.00 | 0.00 | 79 | 1010.6 |
| 20260905135515 | 69 | 338 | 0.9 | 5.2 | 0.00 | 0.00 | 0.00 | 80 | 1010.4 |
| 20260905135015 | 68 | 0.0 | 2.6 | 0.00 | 0.00 | 0.00 | 81 | 1010.4 | |
| 20260905134517 | 68 | 338 | 0.9 | 1.7 | 0.00 | 0.00 | 0.00 | 82 | 1010.4 |
| 20260905134015 | 68 | 338 | 0.9 | 1.7 | 0.00 | 0.00 | 0.00 | 82 | 1010.2 |
| 20260905133515 | 67 | 0.0 | 0.9 | 0.00 | 0.00 | 0.00 | 83 | 1010.2 | |
| 20260905133017 | 67 | 338 | 0.9 | 1.7 | 0.00 | 0.00 | 0.00 | 82 | 1010.2 |
| 20260905132517 | 67 | 0.0 | 0.9 | 0.00 | 0.00 | 0.00 | 84 | 1010.0 | |
| 20260905132017 | 67 | 0.0 | 0.9 | 0.00 | 0.00 | 0.00 | 84 | 1010.0 | |
| 20260905131537 | 67 | 0.0 | 0.9 | 0.00 | 0.00 | 0.00 | 84 | 1010.0 | |
| 20260905131017 | 67 | 0.0 | 0.9 | 0.00 | 0.00 | 0.00 | 84 | 1010.0 | |
| 20260905130537 | 67 | 0.0 | 0.9 | 0.00 | 0.00 | 0.00 | 84 | 1010.0 | |
| 20260905130017 | 67 | 0 | 0.9 | 1.7 | 0.00 | 0.00 | 0.00 | 84 | 1010.0 |
| 20260905125517 | 67 | 338 | 0.9 | 2.6 | 0.00 | 0.00 | 0.00 | 84 | 1009.8 |
| 20260905125017 | 66 | 338 | 0.9 | 2.6 | 0.00 | 0.00 | 0.00 | 84 | 1009.8 |
| 20260905124517 | 66 | 0.0 | 0.9 | 0.00 | 0.00 | 0.00 | 85 | 1009.8 | |
| 20260905124017 | 66 | 23 | 0.9 | 1.7 | 0.00 | 0.00 | 0.00 | 85 | 1009.4 |
| 20260905123517 | 66 | 0.0 | 0.0 | 0.00 | 0.00 | 0.00 | 86 | 1009.4 | |
| 20260905123017 | 66 | 0.0 | 1.7 | 0.00 | 0.00 | 0.00 | 85 | 1009.4 | |
| 20260905122517 | 65 | 315 | 0.9 | 2.6 | 0.00 | 0.00 | 0.00 | 86 | 1009.3 |
| 20260905122017 | 65 | 315 | 0.9 | 2.6 | 0.00 | 0.00 | 0.00 | 86 | 1009.3 |
| 20260905121517 | 65 | 0.0 | 1.7 | 0.00 | 0.00 | 0.00 | 86 | 1009.3 | |
| 20260905121017 | 65 | 0 | 0.9 | 1.7 | 0.00 | 0.00 | 0.00 | 86 | 1009.0 |
| 20260905120517 | 65 | 0 | 0.9 | 1.7 | 0.00 | 0.00 | 0.00 | 86 | 1009.0 |
| 20260905120017 | 65 | 315 | 0.9 | 1.7 | 0.00 | 0.00 | 0.00 | 86 | 1009.0 |
| 20260905115537 | 65 | 315 | 1.7 | 2.6 | 0.00 | 0.00 | 0.00 | 86 | 1008.7 |
| 20260905115017 | 65 | 338 | 1.7 | 4.3 | 0.00 | 0.00 | 0.00 | 86 | 1008.7 |
| 20260905114537 | 65 | 338 | 1.7 | 2.6 | 0.00 | 0.00 | 0.00 | 87 | 1008.7 |
| 20260905114017 | 65 | 338 | 1.7 | 2.6 | 0.00 | 0.00 | 0.00 | 87 | 1008.3 |
| 20260905113517 | 64 | 338 | 1.7 | 2.6 | 0.00 | 0.00 | 0.00 | 87 | 1008.3 |
| 20260905113017 | 64 | 338 | 1.7 | 2.6 | 0.00 | 0.00 | 0.00 | 87 | 1008.3 |
| 20260905112537 | 64 | 0 | 1.7 | 2.6 | 0.00 | 0.00 | 0.00 | 87 | 1008.0 |
| 20260905112017 | 64 | 338 | 1.7 | 3.5 | 0.00 | 0.00 | 0.00 | 87 | 1008.0 |
| 20260905111537 | 64 | 315 | 1.7 | 2.6 | 0.00 | 0.00 | 0.00 | 87 | 1008.0 |
| 20260905111017 | 64 | 315 | 0.9 | 3.5 | 0.00 | 0.00 | 0.00 | 87 | 1007.8 |
| 20260905110017 | 64 | 315 | 1.7 | 4.3 | 0.00 | 0.00 | 0.00 | 87 | 1007.8 |
| 20260905105557 | 64 | 315 | 1.7 | 3.5 | 0.00 | 0.00 | 0.00 | 87 | 1007.6 |
| 20260905105017 | 64 | 315 | 1.7 | 2.6 | 0.00 | 0.00 | 0.00 | 87 | 1007.6 |
| 20260905104517 | 64 | 338 | 0.9 | 2.6 | 0.00 | 0.00 | 0.00 | 88 | 1007.6 |
| 20260905104037 | 64 | 315 | 0.9 | 2.6 | 0.00 | 0.00 | 0.00 | 87 | 1007.5 |
| 20260905103517 | 64 | 315 | 0.9 | 2.6 | 0.00 | 0.00 | 0.00 | 87 | 1007.5 |
| 20260905103017 | 64 | 315 | 0.9 | 1.7 | 0.00 | 0.00 | 0.00 | 87 | 1007.5 |
| 20260905102517 | 64 | 315 | 0.9 | 1.7 | 0.00 | 0.00 | 0.00 | 87 | 1007.2 |
| 20260905102017 | 64 | 315 | 0.9 | 2.6 | 0.00 | 0.00 | 0.00 | 87 | 1007.2 |
| 20260905101517 | 64 | 293 | 1.7 | 3.5 | 0.00 | 0.00 | 0.00 | 87 | 1007.2 |
| 20260905101017 | 64 | 293 | 1.7 | 2.6 | 0.00 | 0.00 | 0.00 | 87 | 1007.2 |
| 20260905100517 | 64 | 315 | 0.9 | 1.7 | 0.00 | 0.00 | 0.00 | 86 | 1007.2 |
| 20260905100017 | 64 | 338 | 0.9 | 1.7 | 0.00 | 0.00 | 0.00 | 86 | 1007.2 |
| 20260905095537 | 64 | 338 | 0.9 | 1.7 | 0.00 | 0.00 | 0.00 | 86 | 1006.8 |
| 20260905095016 | 64 | 293 | 0.9 | 1.7 | 0.00 | 0.00 | 0.00 | 86 | 1006.8 |
| 20260905094517 | 64 | 338 | 0.9 | 1.7 | 0.00 | 0.00 | 0.00 | 86 | 1006.8 |
| 20260905094037 | 64 | 315 | 1.7 | 3.5 | 0.00 | 0.00 | 0.00 | 85 | 1006.7 |
| 20260905093537 | 65 | 293 | 0.9 | 2.6 | 0.00 | 0.00 | 0.00 | 86 | 1006.7 |
| 20260905093016 | 65 | 315 | 0.9 | 1.7 | 0.00 | 0.00 | 0.00 | 85 | 1006.7 |
| 20260905092517 | 65 | 315 | 1.7 | 3.5 | 0.00 | 0.00 | 0.00 | 85 | 1006.6 |
| 20260905092017 | 65 | 0.0 | 0.9 | 0.00 | 0.00 | 0.00 | 86 | 1006.6 | |
| 20260905091517 | 65 | 0.0 | 0.0 | 0.00 | 0.00 | 0.00 | 85 | 1006.6 | |
| 20260905091036 | 65 | 0.0 | 1.7 | 0.00 | 0.00 | 0.00 | 85 | 1006.4 | |
| 20260905090517 | 65 | 315 | 0.9 | 1.7 | 0.00 | 0.00 | 0.00 | 85 | 1006.4 |
| 20260905090016 | 65 | 0.0 | 0.9 | 0.00 | 0.00 | 0.00 | 85 | 1006.4 | |
| 20260905085537 | 65 | 0.0 | 0.9 | 0.00 | 0.00 | 0.00 | 85 | 1006.2 | |
| 20260905085017 | 65 | 0.0 | 0.9 | 0.00 | 0.00 | 0.00 | 85 | 1006.2 | |
| 20260905084517 | 65 | 293 | 0.9 | 1.7 | 0.00 | 0.00 | 0.00 | 85 | 1006.2 |
| 20260905084017 | 65 | 315 | 0.9 | 1.7 | 0.00 | 0.00 | 0.00 | 85 | 1006.3 |
| 20260905083516 | 65 | 0.0 | 0.9 | 0.00 | 0.00 | 0.00 | 84 | 1006.3 | |
| 20260905083016 | 65 | 0.0 | 0.9 | 0.00 | 0.00 | 0.00 | 84 | 1006.3 | |
| 20260905082517 | 65 | 0.0 | 0.9 | 0.00 | 0.00 | 0.00 | 84 | 1006.2 | |
| 20260905082017 | 65 | 315 | 0.9 | 1.7 | 0.00 | 0.00 | 0.00 | 84 | 1006.2 |
| 20260905081537 | 65 | 0.0 | 1.7 | 0.00 | 0.00 | 0.00 | 84 | 1006.2 | |
| 20260905081016 | 65 | 0.0 | 1.7 | 0.00 | 0.00 | 0.00 | 83 | 1006.1 | |
| 20260905080517 | 65 | 0.0 | 0.9 | 0.00 | 0.00 | 0.00 | 83 | 1006.1 | |
| 20260905080057 | 65 | 315 | 0.9 | 2.6 | 0.00 | 0.00 | 0.00 | 83 | 1006.1 |
| 20260905075517 | 65 | 0.0 | 0.9 | 0.00 | 0.00 | 0.00 | 83 | 1005.9 | |
| 20260905075017 | 66 | 338 | 0.9 | 1.7 | 0.00 | 0.00 | 0.00 | 83 | 1005.9 |
| 20260905074517 | 66 | 315 | 0.9 | 3.5 | 0.00 | 0.00 | 0.00 | 83 | 1005.9 |
| 20260905074016 | 66 | 0.0 | 1.7 | 0.00 | 0.00 | 0.00 | 83 | 1006.1 | |
| 20260905073517 | 66 | 315 | 0.9 | 1.7 | 0.00 | 0.00 | 0.00 | 83 | 1006.1 |
| 20260905073017 | 66 | 293 | 0.9 | 1.7 | 0.00 | 0.00 | 0.00 | 83 | 1006.1 |
| 20260905072517 | 66 | 315 | 0.9 | 3.5 | 0.00 | 0.00 | 0.00 | 82 | 1006.1 |
| 20260905072017 | 66 | 0.0 | 1.7 | 0.00 | 0.00 | 0.00 | 82 | 1006.1 | |
| 20260905071517 | 66 | 0.0 | 0.9 | 0.00 | 0.00 | 0.00 | 82 | 1006.1 | |
| 20260905071017 | 66 | 0.0 | 1.7 | 0.00 | 0.00 | 0.00 | 81 | 1006.2 | |
| 20260905070517 | 66 | 0.0 | 1.7 | 0.00 | 0.00 | 0.00 | 82 | 1006.2 | |
| 20260905070017 | 67 | 0.0 | 0.9 | 0.00 | 0.00 | 0.00 | 81 | 1006.2 | |
| 20260905065517 | 67 | 0.0 | 1.7 | 0.00 | 0.00 | 0.00 | 82 | 1006.2 | |
| 20260905065017 | 67 | 293 | 0.9 | 2.6 | 0.00 | 0.00 | 0.00 | 81 | 1006.2 |
| 20260905064517 | 67 | 293 | 1.7 | 4.3 | 0.00 | 0.00 | 0.00 | 81 | 1006.2 |
| 20260905064037 | 67 | 293 | 2.6 | 4.3 | 0.00 | 0.00 | 0.00 | 81 | 1006.3 |
| 20260905063517 | 67 | 293 | 1.7 | 4.3 | 0.00 | 0.00 | 0.00 | 81 | 1006.3 |
| 20260905063017 | 67 | 315 | 1.7 | 3.5 | 0.00 | 0.00 | 0.00 | 81 | 1006.3 |
| 20260905062517 | 67 | 315 | 1.7 | 3.5 | 0.00 | 0.00 | 0.00 | 80 | 1006.3 |
| 20260905062016 | 67 | 315 | 2.6 | 4.3 | 0.00 | 0.00 | 0.00 | 80 | 1006.3 |
| 20260905061517 | 67 | 293 | 3.5 | 5.2 | 0.00 | 0.00 | 0.00 | 80 | 1006.3 |
| 20260905061016 | 68 | 293 | 2.6 | 5.2 | 0.00 | 0.00 | 0.00 | 79 | 1006.4 |
| 20260905060536 | 68 | 293 | 1.7 | 4.3 | 0.00 | 0.00 | 0.00 | 80 | 1006.4 |
| 20260905060017 | 68 | 293 | 0.9 | 2.6 | 0.00 | 0.00 | 0.00 | 79 | 1006.4 |
| 20260905055516 | 68 | 293 | 1.7 | 3.5 | 0.00 | 0.00 | 0.00 | 80 | 1006.2 |
| 20260905055017 | 68 | 293 | 2.6 | 4.3 | 0.00 | 0.00 | 0.00 | 80 | 1006.2 |
| 20260905054517 | 68 | 293 | 3.5 | 5.2 | 0.00 | 0.00 | 0.00 | 80 | 1006.2 |
| 20260905054037 | 68 | 293 | 2.6 | 5.2 | 0.00 | 0.00 | 0.00 | 80 | 1006.2 |
| 20260905053516 | 68 | 293 | 1.7 | 5.2 | 0.00 | 0.00 | 0.00 | 79 | 1006.2 |
| 20260905053017 | 68 | 293 | 2.6 | 5.2 | 0.00 | 0.00 | 0.00 | 79 | 1006.2 |
| 20260905052517 | 68 | 293 | 0.9 | 4.3 | 0.00 | 0.00 | 0.00 | 79 | 1006.2 |
| 20260905052036 | 68 | 293 | 0.9 | 3.5 | 0.00 | 0.00 | 0.00 | 78 | 1006.2 |
| 20260905051516 | 68 | 293 | 2.6 | 3.5 | 0.00 | 0.00 | 0.00 | 79 | 1006.2 |
| 20260905051016 | 68 | 315 | 1.7 | 3.5 | 0.00 | 0.00 | 0.00 | 79 | 1006.1 |
| 20260905050516 | 68 | 315 | 2.6 | 3.5 | 0.00 | 0.00 | 0.00 | 79 | 1006.1 |
| 20260905050016 | 68 | 293 | 0.9 | 3.5 | 0.00 | 0.00 | 0.00 | 79 | 1006.1 |
| 20260905045516 | 68 | 0.0 | 1.7 | 0.00 | 0.00 | 0.00 | 80 | 1005.9 | |
| 20260905045016 | 68 | 293 | 0.9 | 1.7 | 0.00 | 0.00 | 0.00 | 78 | 1005.9 |
| 20260905044536 | 68 | 315 | 0.9 | 1.7 | 0.00 | 0.00 | 0.00 | 78 | 1005.9 |
| 20260905044016 | 68 | 0.0 | 1.7 | 0.00 | 0.00 | 0.00 | 77 | 1006.1 | |
| 20260905043516 | 69 | 293 | 0.9 | 1.7 | 0.00 | 0.00 | 0.00 | 77 | 1006.1 |
| 20260905043016 | 69 | 293 | 2.6 | 5.2 | 0.00 | 0.00 | 0.00 | 76 | 1006.1 |
| 20260905042516 | 69 | 293 | 3.5 | 4.3 | 0.00 | 0.00 | 0.00 | 76 | 1006.1 |
| 20260905042016 | 69 | 293 | 1.7 | 3.5 | 0.00 | 0.00 | 0.00 | 77 | 1006.1 |
| 20260905041516 | 69 | 315 | 3.5 | 5.2 | 0.00 | 0.00 | 0.00 | 77 | 1006.1 |
| 20260905041017 | 69 | 293 | 2.6 | 5.2 | 0.00 | 0.00 | 0.00 | 77 | 1005.8 |
| 20260905040536 | 69 | 315 | 2.6 | 4.3 | 0.00 | 0.00 | 0.00 | 77 | 1005.8 |
| 20260905040036 | 69 | 293 | 2.6 | 5.2 | 0.00 | 0.00 | 0.00 | 77 | 1005.8 |
| 20260905035517 | 69 | 293 | 1.7 | 2.6 | 0.00 | 0.00 | 0.00 | 77 | 1005.7 |
| 20260905035017 | 69 | 315 | 2.6 | 4.3 | 0.00 | 0.00 | 0.00 | 78 | 1005.7 |
| 20260905034517 | 69 | 315 | 4.3 | 6.1 | 0.00 | 0.00 | 0.00 | 78 | 1005.7 |
| 20260905034017 | 69 | 315 | 3.5 | 5.2 | 0.00 | 0.00 | 0.00 | 78 | 1005.7 |
| 20260905033517 | 69 | 315 | 2.6 | 4.3 | 0.00 | 0.00 | 0.00 | 78 | 1005.7 |
| 20260905033017 | 69 | 0.0 | 1.7 | 0.00 | 0.00 | 0.00 | 76 | 1005.7 | |
| 20260905032537 | 69 | 293 | 1.7 | 3.5 | 0.00 | 0.00 | 0.00 | 77 | 1005.8 |
| 20260905032017 | 69 | 293 | 0.9 | 2.6 | 0.00 | 0.00 | 0.00 | 76 | 1005.8 |
| 20260905031517 | 69 | 0.0 | 1.7 | 0.00 | 0.00 | 0.00 | 77 | 1005.8 | |
| 20260905031037 | 69 | 0.0 | 1.7 | 0.00 | 0.00 | 0.00 | 78 | 1006.0 | |
| 20260905030517 | 69 | 293 | 0.9 | 2.6 | 0.00 | 0.00 | 0.00 | 79 | 1005.9 |
| 20260905030017 | 69 | 293 | 2.6 | 4.3 | 0.00 | 0.00 | 0.00 | 78 | 1005.9 |
| 20260905025517 | 69 | 293 | 3.5 | 4.3 | 0.00 | 0.00 | 0.00 | 79 | 1005.9 |
| 20260905025017 | 69 | 293 | 1.7 | 3.5 | 0.00 | 0.00 | 0.00 | 79 | 1005.9 |
| 20260905024537 | 69 | 0.0 | 1.7 | 0.00 | 0.00 | 0.00 | 78 | 1005.9 | |
| 20260905024017 | 69 | 0.0 | 0.0 | 0.00 | 0.00 | 0.00 | 78 | 1005.8 | |
| 20260905023537 | 69 | 0.0 | 0.9 | 0.00 | 0.00 | 0.00 | 77 | 1005.8 | |
| 20260905023017 | 69 | 0.0 | 1.7 | 0.00 | 0.00 | 0.00 | 77 | 1005.8 | |
| 20260905022517 | 69 | 0.0 | 1.7 | 0.00 | 0.00 | 0.00 | 77 | 1006.1 | |
| 20260905022017 | 69 | 0.0 | 0.9 | 0.00 | 0.00 | 0.00 | 78 | 1006.1 | |
| 20260905021517 | 69 | 0.0 | 0.0 | 0.00 | 0.00 | 0.00 | 77 | 1006.1 | |
| 20260905021037 | 69 | 0.0 | 0.0 | 0.00 | 0.00 | 0.00 | 77 | 1006.1 | |
| 20260905020517 | 70 | 0.0 | 0.0 | 0.00 | 0.00 | 0.00 | 77 | 1006.1 | |
| 20260905020017 | 70 | 0.0 | 0.9 | 0.00 | 0.00 | 0.00 | 77 | 1006.1 | |
| 20260905015517 | 70 | 0.0 | 1.7 | 0.00 | 0.00 | 0.00 | 77 | 1006.1 | |
| 20260905015017 | 70 | 315 | 0.9 | 1.7 | 0.00 | 0.00 | 0.00 | 78 | 1006.1 |
| 20260905014517 | 70 | 0.0 | 1.7 | 0.00 | 0.00 | 0.00 | 75 | 1006.1 | |
| 20260905014037 | 70 | 293 | 0.9 | 2.6 | 0.00 | 0.00 | 0.00 | 73 | 1006.1 |
| 20260905013517 | 70 | 0.0 | 0.9 | 0.00 | 0.00 | 0.00 | 74 | 1006.1 | |
| 20260905013017 | 70 | 0.0 | 0.0 | 0.00 | 0.00 | 0.00 | 73 | 1006.1 | |
| 20260905012517 | 71 | 293 | 0.9 | 1.7 | 0.00 | 0.00 | 0.00 | 75 | 1006.1 |
| 20260905012017 | 71 | 0.0 | 0.0 | 0.00 | 0.00 | 0.00 | 73 | 1006.1 | |
| 20260905011517 | 71 | 0.0 | 0.0 | 0.00 | 0.00 | 0.00 | 72 | 1006.1 | |
| 20260905011017 | 71 | 0.0 | 0.0 | 0.00 | 0.00 | 0.00 | 71 | 1006.0 | |
| 20260905010517 | 72 | 0.0 | 0.0 | 0.00 | 0.00 | 0.00 | 70 | 1006.0 | |
| 20260905010017 | 72 | 0.0 | 0.0 | 0.00 | 0.00 | 0.00 | 71 | 1006.1 | |
| 20260905005517 | 72 | 293 | 0.9 | 1.7 | 0.00 | 0.00 | 0.00 | 70 | 1005.9 |
| 20260905005017 | 72 | 315 | 0.9 | 1.7 | 0.00 | 0.00 | 0.00 | 68 | 1005.9 |
| 20260905004537 | 72 | 315 | 0.9 | 2.6 | 0.00 | 0.00 | 0.00 | 67 | 1005.9 |
| 20260905004017 | 72 | 293 | 0.9 | 1.7 | 0.00 | 0.00 | 0.00 | 68 | 1006.0 |
| 20260905003517 | 72 | 293 | 0.9 | 2.6 | 0.00 | 0.00 | 0.00 | 67 | 1006.0 |
| 20260905003017 | 73 | 0.0 | 0.9 | 0.00 | 0.00 | 0.00 | 67 | 1006.0 | |
| 20260905002517 | 73 | 315 | 1.7 | 3.5 | 0.00 | 0.00 | 0.00 | 66 | 1005.9 |
| 20260905002037 | 73 | 315 | 1.7 | 2.6 | 0.00 | 0.00 | 0.00 | 66 | 1005.9 |
| 20260905001517 | 73 | 315 | 1.7 | 2.6 | 0.00 | 0.00 | 0.00 | 66 | 1005.9 |
| 20260905001017 | 73 | 315 | 1.7 | 3.5 | 0.00 | 0.00 | 0.00 | 66 | 1005.9 |
| 20260905000517 | 73 | 315 | 1.7 | 2.6 | 0.00 | 0.00 | 0.00 | 67 | 1005.9 |
| 20260905000017 | 73 | 293 | 2.6 | 4.3 | 0.00 | 0.00 | 0.00 | 66 | 1005.9 |
| 20260904235537 | 73 | 315 | 1.7 | 3.5 | 0.00 | 0.00 | 0.00 | 67 | 1005.5 |
| 20260904235017 | 73 | 315 | 1.7 | 3.5 | 0.00 | 0.00 | 0.00 | 68 | 1005.5 |
| 20260904234517 | 73 | 315 | 0.9 | 2.6 | 0.00 | 0.00 | 0.00 | 69 | 1005.5 |
| 20260904234017 | 73 | 315 | 0.9 | 2.6 | 0.00 | 0.00 | 0.00 | 69 | 1005.4 |
| 20260904233517 | 74 | 293 | 0.9 | 1.7 | 0.00 | 0.00 | 0.00 | 72 | 1005.5 |
| 20260904233017 | 74 | 315 | 0.9 | 1.7 | 0.00 | 0.00 | 0.00 | 68 | 1005.5 |
| 20260904232516 | 74 | 0.0 | 0.9 | 0.00 | 0.00 | 0.00 | 69 | 1005.3 | |
| 20260904232016 | 74 | 0.0 | 1.7 | 0.00 | 0.00 | 0.00 | 67 | 1005.3 | |
| 20260904231537 | 75 | 315 | 0.9 | 1.7 | 0.00 | 0.00 | 0.00 | 67 | 1005.3 |
| 20260904231016 | 75 | 0.0 | 0.0 | 0.00 | 0.00 | 0.00 | 66 | 1005.3 | |
| 20260904230516 | 75 | 0.0 | 1.7 | 0.00 | 0.00 | 0.00 | 65 | 1005.3 | |
| 20260904230017 | 75 | 0.0 | 1.7 | 0.00 | 0.00 | 0.00 | 65 | 1005.3 | |
| 20260904225517 | 76 | 0.0 | 0.9 | 0.00 | 0.00 | 0.00 | 64 | 1005.2 | |
| 20260904225017 | 76 | 315 | 0.9 | 2.6 | 0.00 | 0.00 | 0.00 | 64 | 1005.2 |